sensor_id;sensor_type;location;lat;lon;timestamp;P1;durP1;ratioP1;P2;durP2;ratioP2
17796;SDS011;55596;53.554;9.916;2023-02-17T00:02:19;169.63;;;92.00;;
17796;SDS011;55596;53.554;9.916;2023-02-17T00:04:46;178.73;;;94.03;;
17796;SDS011;55596;53.554;9.916;2023-02-17T00:07:14;171.60;;;92.27;;
17796;SDS011;55596;53.554;9.916;2023-02-17T00:09:41;167.67;;;90.30;;
17796;SDS011;55596;53.554;9.916;2023-02-17T00:12:08;174.47;;;92.87;;
17796;SDS011;55596;53.554;9.916;2023-02-17T00:14:37;179.13;;;93.40;;
17796;SDS011;55596;53.554;9.916;2023-02-17T00:17:04;181.60;;;92.43;;
17796;SDS011;55596;53.554;9.916;2023-02-17T00:19:31;172.30;;;92.67;;
17796;SDS011;55596;53.554;9.916;2023-02-17T00:21:59;179.70;;;90.53;;
17796;SDS011;55596;53.554;9.916;2023-02-17T00:24:29;172.30;;;90.87;;
17796;SDS011;55596;53.554;9.916;2023-02-17T00:26:56;182.67;;;91.00;;
17796;SDS011;55596;53.554;9.916;2023-02-17T00:29:23;172.90;;;92.33;;
17796;SDS011;55596;53.554;9.916;2023-02-17T00:31:51;181.73;;;94.47;;
17796;SDS011;55596;53.554;9.916;2023-02-17T00:34:18;186.47;;;94.30;;
17796;SDS011;55596;53.554;9.916;2023-02-17T00:36:45;172.87;;;91.50;;
17796;SDS011;55596;53.554;9.916;2023-02-17T00:39:13;174.97;;;92.10;;
17796;SDS011;55596;53.554;9.916;2023-02-17T00:41:43;183.87;;;93.03;;
17796;SDS011;55596;53.554;9.916;2023-02-17T00:44:11;188.13;;;91.37;;
17796;SDS011;55596;53.554;9.916;2023-02-17T00:46:42;181.67;;;92.37;;
17796;SDS011;55596;53.554;9.916;2023-02-17T00:49:11;178.67;;;91.03;;
17796;SDS011;55596;53.554;9.916;2023-02-17T00:51:41;175.63;;;90.53;;
17796;SDS011;55596;53.554;9.916;2023-02-17T00:54:08;178.47;;;88.87;;
17796;SDS011;55596;53.554;9.916;2023-02-17T00:56:34;169.73;;;90.10;;
17796;SDS011;55596;53.554;9.916;2023-02-17T00:59:03;178.43;;;89.53;;
17796;SDS011;55596;53.554;9.916;2023-02-17T01:01:30;169.40;;;88.83;;
17796;SDS011;55596;53.554;9.916;2023-02-17T01:03:57;167.30;;;88.03;;
17796;SDS011;55596;53.554;9.916;2023-02-17T01:06:25;147.67;;;76.00;;
17796;SDS011;55596;53.554;9.916;2023-02-17T01:08:52;166.60;;;86.70;;
17796;SDS011;55596;53.554;9.916;2023-02-17T01:11:20;158.97;;;85.87;;
17796;SDS011;55596;53.554;9.916;2023-02-17T01:13:49;163.47;;;85.47;;
17796;SDS011;55596;53.554;9.916;2023-02-17T01:16:19;187.73;;;88.63;;
17796;SDS011;55596;53.554;9.916;2023-02-17T01:18:47;156.40;;;84.80;;
17796;SDS011;55596;53.554;9.916;2023-02-17T01:21:15;147.57;;;79.27;;
17796;SDS011;55596;53.554;9.916;2023-02-17T01:23:42;159.90;;;83.77;;
17796;SDS011;55596;53.554;9.916;2023-02-17T01:26:12;147.73;;;79.10;;
17796;SDS011;55596;53.554;9.916;2023-02-17T01:28:39;150.50;;;81.03;;
17796;SDS011;55596;53.554;9.916;2023-02-17T01:31:06;164.87;;;85.33;;
17796;SDS011;55596;53.554;9.916;2023-02-17T01:33:35;157.47;;;82.17;;
17796;SDS011;55596;53.554;9.916;2023-02-17T01:36:03;152.63;;;82.20;;
17796;SDS011;55596;53.554;9.916;2023-02-17T01:38:30;149.57;;;81.97;;
17796;SDS011;55596;53.554;9.916;2023-02-17T01:40:57;150.00;;;81.40;;
17796;SDS011;55596;53.554;9.916;2023-02-17T01:43:25;157.17;;;82.23;;
17796;SDS011;55596;53.554;9.916;2023-02-17T01:45:52;158.17;;;79.63;;
17796;SDS011;55596;53.554;9.916;2023-02-17T01:48:21;146.17;;;78.73;;
17796;SDS011;55596;53.554;9.916;2023-02-17T01:50:53;136.83;;;75.40;;
17796;SDS011;55596;53.554;9.916;2023-02-17T01:53:23;155.50;;;78.50;;
17796;SDS011;55596;53.554;9.916;2023-02-17T01:55:54;152.83;;;77.77;;
17796;SDS011;55596;53.554;9.916;2023-02-17T01:58:22;134.50;;;75.00;;
17796;SDS011;55596;53.554;9.916;2023-02-17T02:00:51;143.67;;;77.00;;
17796;SDS011;55596;53.554;9.916;2023-02-17T02:03:20;142.57;;;75.17;;
17796;SDS011;55596;53.554;9.916;2023-02-17T02:05:47;135.70;;;73.10;;
17796;SDS011;55596;53.554;9.916;2023-02-17T02:08:15;128.10;;;72.07;;
17796;SDS011;55596;53.554;9.916;2023-02-17T02:10:42;126.17;;;72.03;;
17796;SDS011;55596;53.554;9.916;2023-02-17T02:13:09;135.23;;;71.93;;
17796;SDS011;55596;53.554;9.916;2023-02-17T02:15:38;125.97;;;69.57;;
17796;SDS011;55596;53.554;9.916;2023-02-17T02:18:12;135.77;;;71.70;;
17796;SDS011;55596;53.554;9.916;2023-02-17T02:21:15;125.43;;;69.00;;
17796;SDS011;55596;53.554;9.916;2023-02-17T02:24:15;112.20;;;61.70;;
17796;SDS011;55596;53.554;9.916;2023-02-17T02:27:14;126.67;;;65.37;;
17796;SDS011;55596;53.554;9.916;2023-02-17T02:33:24;109.30;;;60.40;;
17796;SDS011;55596;53.554;9.916;2023-02-17T02:35:59;113.43;;;60.87;;
17796;SDS011;55596;53.554;9.916;2023-02-17T02:38:34;119.13;;;62.57;;
17796;SDS011;55596;53.554;9.916;2023-02-17T02:41:06;116.70;;;61.23;;
17796;SDS011;55596;53.554;9.916;2023-02-17T02:43:36;96.93;;;55.90;;
17796;SDS011;55596;53.554;9.916;2023-02-17T02:46:03;110.70;;;57.97;;
17796;SDS011;55596;53.554;9.916;2023-02-17T02:48:32;97.63;;;55.33;;
17796;SDS011;55596;53.554;9.916;2023-02-17T02:51:09;94.43;;;53.20;;
17796;SDS011;55596;53.554;9.916;2023-02-17T02:53:54;84.27;;;51.13;;
17796;SDS011;55596;53.554;9.916;2023-02-17T02:56:34;88.07;;;50.90;;
17796;SDS011;55596;53.554;9.916;2023-02-17T02:59:10;90.77;;;52.93;;
17796;SDS011;55596;53.554;9.916;2023-02-17T03:01:49;85.53;;;50.33;;
17796;SDS011;55596;53.554;9.916;2023-02-17T03:04:27;83.87;;;48.83;;
17796;SDS011;55596;53.554;9.916;2023-02-17T03:07:00;85.80;;;48.53;;
17796;SDS011;55596;53.554;9.916;2023-02-17T03:09:31;83.27;;;50.03;;
17796;SDS011;55596;53.554;9.916;2023-02-17T03:11:59;79.03;;;47.93;;
17796;SDS011;55596;53.554;9.916;2023-02-17T03:14:26;81.00;;;49.07;;
17796;SDS011;55596;53.554;9.916;2023-02-17T03:16:56;83.23;;;47.27;;
17796;SDS011;55596;53.554;9.916;2023-02-17T03:19:23;84.67;;;46.30;;
17796;SDS011;55596;53.554;9.916;2023-02-17T03:21:54;80.83;;;45.73;;
17796;SDS011;55596;53.554;9.916;2023-02-17T03:24:24;85.27;;;47.97;;
17796;SDS011;55596;53.554;9.916;2023-02-17T03:26:51;78.63;;;46.20;;
17796;SDS011;55596;53.554;9.916;2023-02-17T03:29:18;78.40;;;46.00;;
17796;SDS011;55596;53.554;9.916;2023-02-17T03:31:46;75.73;;;43.93;;
17796;SDS011;55596;53.554;9.916;2023-02-17T03:34:13;79.17;;;45.17;;
17796;SDS011;55596;53.554;9.916;2023-02-17T03:36:40;74.63;;;43.97;;
17796;SDS011;55596;53.554;9.916;2023-02-17T03:39:08;77.33;;;44.17;;
17796;SDS011;55596;53.554;9.916;2023-02-17T03:41:35;80.13;;;44.80;;
17796;SDS011;55596;53.554;9.916;2023-02-17T03:44:02;77.10;;;42.70;;
17796;SDS011;55596;53.554;9.916;2023-02-17T03:46:29;74.40;;;42.23;;
17796;SDS011;55596;53.554;9.916;2023-02-17T03:48:55;73.67;;;41.57;;
17796;SDS011;55596;53.554;9.916;2023-02-17T03:51:22;76.00;;;42.37;;
17796;SDS011;55596;53.554;9.916;2023-02-17T03:53:50;73.10;;;40.77;;
17796;SDS011;55596;53.554;9.916;2023-02-17T03:56:19;69.00;;;39.80;;
17796;SDS011;55596;53.554;9.916;2023-02-17T03:58:46;72.60;;;40.30;;
17796;SDS011;55596;53.554;9.916;2023-02-17T04:01:13;75.67;;;41.03;;
17796;SDS011;55596;53.554;9.916;2023-02-17T04:03:40;69.77;;;40.57;;
17796;SDS011;55596;53.554;9.916;2023-02-17T04:06:07;78.63;;;41.27;;
17796;SDS011;55596;53.554;9.916;2023-02-17T04:08:34;71.53;;;41.13;;
17796;SDS011;55596;53.554;9.916;2023-02-17T04:11:02;68.73;;;39.43;;
17796;SDS011;55596;53.554;9.916;2023-02-17T04:13:31;68.03;;;38.50;;
17796;SDS011;55596;53.554;9.916;2023-02-17T04:15:58;68.13;;;37.80;;
17796;SDS011;55596;53.554;9.916;2023-02-17T04:18:26;65.67;;;37.80;;
17796;SDS011;55596;53.554;9.916;2023-02-17T04:20:53;61.17;;;34.77;;
17796;SDS011;55596;53.554;9.916;2023-02-17T04:23:20;64.70;;;35.97;;
17796;SDS011;55596;53.554;9.916;2023-02-17T04:25:47;57.53;;;33.17;;
17796;SDS011;55596;53.554;9.916;2023-02-17T04:28:14;61.07;;;34.87;;
17796;SDS011;55596;53.554;9.916;2023-02-17T04:30:43;57.00;;;34.07;;
17796;SDS011;55596;53.554;9.916;2023-02-17T04:33:10;62.67;;;35.77;;
17796;SDS011;55596;53.554;9.916;2023-02-17T04:35:37;57.83;;;34.00;;
17796;SDS011;55596;53.554;9.916;2023-02-17T04:38:04;62.17;;;34.97;;
17796;SDS011;55596;53.554;9.916;2023-02-17T04:40:32;62.70;;;36.20;;
17796;SDS011;55596;53.554;9.916;2023-02-17T04:42:59;64.67;;;35.37;;
17796;SDS011;55596;53.554;9.916;2023-02-17T04:45:26;62.97;;;34.80;;
17796;SDS011;55596;53.554;9.916;2023-02-17T04:47:54;64.13;;;35.33;;
17796;SDS011;55596;53.554;9.916;2023-02-17T04:50:21;64.67;;;35.07;;
17796;SDS011;55596;53.554;9.916;2023-02-17T04:52:47;69.40;;;35.70;;
17796;SDS011;55596;53.554;9.916;2023-02-17T04:55:14;68.67;;;35.67;;
17796;SDS011;55596;53.554;9.916;2023-02-17T04:57:41;65.20;;;34.93;;
17796;SDS011;55596;53.554;9.916;2023-02-17T05:00:08;64.00;;;34.97;;
17796;SDS011;55596;53.554;9.916;2023-02-17T05:02:36;63.13;;;34.70;;
17796;SDS011;55596;53.554;9.916;2023-02-17T05:05:04;60.53;;;33.83;;
17796;SDS011;55596;53.554;9.916;2023-02-17T05:07:32;64.33;;;34.57;;
17796;SDS011;55596;53.554;9.916;2023-02-17T05:09:59;66.63;;;34.30;;
17796;SDS011;55596;53.554;9.916;2023-02-17T05:12:26;72.77;;;35.50;;
17796;SDS011;55596;53.554;9.916;2023-02-17T05:14:52;67.13;;;35.07;;
17796;SDS011;55596;53.554;9.916;2023-02-17T05:17:19;73.17;;;36.57;;
17796;SDS011;55596;53.554;9.916;2023-02-17T05:19:46;73.60;;;36.57;;
17796;SDS011;55596;53.554;9.916;2023-02-17T05:22:14;76.00;;;37.63;;
17796;SDS011;55596;53.554;9.916;2023-02-17T05:24:41;75.47;;;37.90;;
17796;SDS011;55596;53.554;9.916;2023-02-17T05:27:08;76.37;;;38.77;;
17796;SDS011;55596;53.554;9.916;2023-02-17T05:29:35;78.87;;;38.63;;
17796;SDS011;55596;53.554;9.916;2023-02-17T05:32:02;81.40;;;39.90;;
17796;SDS011;55596;53.554;9.916;2023-02-17T05:34:28;85.77;;;39.73;;
17796;SDS011;55596;53.554;9.916;2023-02-17T05:36:55;88.97;;;41.93;;
17796;SDS011;55596;53.554;9.916;2023-02-17T05:39:24;98.27;;;42.17;;
17796;SDS011;55596;53.554;9.916;2023-02-17T05:41:50;95.97;;;42.37;;
17796;SDS011;55596;53.554;9.916;2023-02-17T05:44:17;97.30;;;42.50;;
17796;SDS011;55596;53.554;9.916;2023-02-17T05:46:44;93.60;;;44.27;;
17796;SDS011;55596;53.554;9.916;2023-02-17T05:49:11;101.27;;;44.13;;
17796;SDS011;55596;53.554;9.916;2023-02-17T05:51:38;97.20;;;43.40;;
17796;SDS011;55596;53.554;9.916;2023-02-17T05:54:05;100.33;;;44.60;;
17796;SDS011;55596;53.554;9.916;2023-02-17T05:56:33;100.63;;;45.00;;
17796;SDS011;55596;53.554;9.916;2023-02-17T05:59:00;110.57;;;45.50;;
17796;SDS011;55596;53.554;9.916;2023-02-17T06:01:26;109.87;;;46.27;;
17796;SDS011;55596;53.554;9.916;2023-02-17T06:03:53;101.80;;;45.03;;
17796;SDS011;55596;53.554;9.916;2023-02-17T06:06:20;104.87;;;45.00;;
17796;SDS011;55596;53.554;9.916;2023-02-17T06:08:47;104.87;;;44.50;;
17796;SDS011;55596;53.554;9.916;2023-02-17T06:11:14;101.57;;;44.30;;
17796;SDS011;55596;53.554;9.916;2023-02-17T06:13:42;103.63;;;44.80;;
17796;SDS011;55596;53.554;9.916;2023-02-17T06:16:09;109.90;;;49.13;;
17796;SDS011;55596;53.554;9.916;2023-02-17T06:18:36;111.67;;;51.23;;
17796;SDS011;55596;53.554;9.916;2023-02-17T06:21:03;122.67;;;52.60;;
17796;SDS011;55596;53.554;9.916;2023-02-17T06:23:30;111.30;;;48.73;;
17796;SDS011;55596;53.554;9.916;2023-02-17T06:25:57;117.13;;;47.43;;
17796;SDS011;55596;53.554;9.916;2023-02-17T06:28:23;115.30;;;47.57;;
17796;SDS011;55596;53.554;9.916;2023-02-17T06:30:52;126.30;;;48.63;;
17796;SDS011;55596;53.554;9.916;2023-02-17T06:33:19;125.00;;;48.87;;
17796;SDS011;55596;53.554;9.916;2023-02-17T06:35:47;119.60;;;50.27;;
17796;SDS011;55596;53.554;9.916;2023-02-17T06:38:14;130.33;;;48.50;;
17796;SDS011;55596;53.554;9.916;2023-02-17T06:40:41;118.47;;;47.03;;
17796;SDS011;55596;53.554;9.916;2023-02-17T06:43:08;133.90;;;50.33;;
17796;SDS011;55596;53.554;9.916;2023-02-17T06:45:35;128.87;;;48.70;;
17796;SDS011;55596;53.554;9.916;2023-02-17T06:48:03;123.50;;;48.47;;
17796;SDS011;55596;53.554;9.916;2023-02-17T06:50:30;127.17;;;50.40;;
17796;SDS011;55596;53.554;9.916;2023-02-17T06:52:57;124.27;;;48.90;;
17796;SDS011;55596;53.554;9.916;2023-02-17T06:55:24;127.47;;;49.93;;
17796;SDS011;55596;53.554;9.916;2023-02-17T06:57:51;122.80;;;49.17;;
17796;SDS011;55596;53.554;9.916;2023-02-17T07:00:18;130.77;;;51.10;;
17796;SDS011;55596;53.554;9.916;2023-02-17T07:02:46;129.53;;;51.70;;
17796;SDS011;55596;53.554;9.916;2023-02-17T07:05:14;128.40;;;51.23;;
17796;SDS011;55596;53.554;9.916;2023-02-17T07:07:41;130.17;;;48.57;;
17796;SDS011;55596;53.554;9.916;2023-02-17T07:10:08;125.20;;;49.23;;
17796;SDS011;55596;53.554;9.916;2023-02-17T07:12:36;132.63;;;50.37;;
17796;SDS011;55596;53.554;9.916;2023-02-17T07:15:03;127.87;;;51.20;;
17796;SDS011;55596;53.554;9.916;2023-02-17T07:17:30;131.30;;;50.00;;
17796;SDS011;55596;53.554;9.916;2023-02-17T07:19:57;124.73;;;49.83;;
17796;SDS011;55596;53.554;9.916;2023-02-17T07:22:25;128.87;;;49.90;;
17796;SDS011;55596;53.554;9.916;2023-02-17T07:24:52;139.63;;;52.33;;
17796;SDS011;55596;53.554;9.916;2023-02-17T07:27:19;129.03;;;51.20;;
17796;SDS011;55596;53.554;9.916;2023-02-17T07:29:46;130.83;;;49.93;;
17796;SDS011;55596;53.554;9.916;2023-02-17T07:32:13;126.27;;;49.20;;
17796;SDS011;55596;53.554;9.916;2023-02-17T07:34:39;127.27;;;48.97;;
17796;SDS011;55596;53.554;9.916;2023-02-17T07:37:07;123.10;;;49.37;;
17796;SDS011;55596;53.554;9.916;2023-02-17T07:39:35;130.73;;;50.73;;
17796;SDS011;55596;53.554;9.916;2023-02-17T07:42:02;117.77;;;45.73;;
17796;SDS011;55596;53.554;9.916;2023-02-17T07:44:30;124.03;;;48.70;;
17796;SDS011;55596;53.554;9.916;2023-02-17T07:46:58;134.30;;;49.80;;
17796;SDS011;55596;53.554;9.916;2023-02-17T07:49:24;122.57;;;48.63;;
17796;SDS011;55596;53.554;9.916;2023-02-17T07:51:51;121.23;;;46.47;;
17796;SDS011;55596;53.554;9.916;2023-02-17T07:54:18;107.00;;;46.67;;
17796;SDS011;55596;53.554;9.916;2023-02-17T07:56:46;113.13;;;47.03;;
17796;SDS011;55596;53.554;9.916;2023-02-17T07:59:13;102.20;;;44.37;;
17796;SDS011;55596;53.554;9.916;2023-02-17T08:01:40;110.93;;;44.67;;
17796;SDS011;55596;53.554;9.916;2023-02-17T08:04:07;93.03;;;41.93;;
17796;SDS011;55596;53.554;9.916;2023-02-17T08:06:36;97.13;;;43.00;;
17796;SDS011;55596;53.554;9.916;2023-02-17T08:09:03;107.53;;;45.20;;
17796;SDS011;55596;53.554;9.916;2023-02-17T08:11:49;100.93;;;43.03;;
17796;SDS011;55596;53.554;9.916;2023-02-17T08:14:33;87.47;;;39.63;;
17796;SDS011;55596;53.554;9.916;2023-02-17T08:17:02;81.03;;;37.27;;
17796;SDS011;55596;53.554;9.916;2023-02-17T08:19:29;71.30;;;34.37;;
17796;SDS011;55596;53.554;9.916;2023-02-17T08:21:56;73.47;;;33.40;;
17796;SDS011;55596;53.554;9.916;2023-02-17T08:24:23;67.73;;;32.37;;
17796;SDS011;55596;53.554;9.916;2023-02-17T08:26:52;66.50;;;33.30;;
17796;SDS011;55596;53.554;9.916;2023-02-17T08:29:19;67.67;;;31.43;;
17796;SDS011;55596;53.554;9.916;2023-02-17T08:31:49;73.43;;;34.57;;
17796;SDS011;55596;53.554;9.916;2023-02-17T08:34:17;69.80;;;34.00;;
17796;SDS011;55596;53.554;9.916;2023-02-17T08:36:44;69.03;;;34.40;;
17796;SDS011;55596;53.554;9.916;2023-02-17T08:39:12;69.00;;;33.47;;
17796;SDS011;55596;53.554;9.916;2023-02-17T08:41:41;70.90;;;32.70;;
17796;SDS011;55596;53.554;9.916;2023-02-17T08:44:11;65.73;;;31.30;;
17796;SDS011;55596;53.554;9.916;2023-02-17T08:46:39;60.97;;;30.43;;
17796;SDS011;55596;53.554;9.916;2023-02-17T08:49:07;63.73;;;29.60;;
17796;SDS011;55596;53.554;9.916;2023-02-17T08:51:34;64.80;;;31.80;;
17796;SDS011;55596;53.554;9.916;2023-02-17T08:54:02;65.87;;;33.53;;
17796;SDS011;55596;53.554;9.916;2023-02-17T08:56:30;71.77;;;34.30;;
17796;SDS011;55596;53.554;9.916;2023-02-17T08:58:57;68.33;;;32.80;;
17796;SDS011;55596;53.554;9.916;2023-02-17T09:01:26;68.13;;;31.83;;
17796;SDS011;55596;53.554;9.916;2023-02-17T09:03:53;65.70;;;30.93;;
17796;SDS011;55596;53.554;9.916;2023-02-17T09:06:22;58.53;;;28.23;;
17796;SDS011;55596;53.554;9.916;2023-02-17T09:08:49;69.17;;;31.47;;
17796;SDS011;55596;53.554;9.916;2023-02-17T09:11:16;61.83;;;29.33;;
17796;SDS011;55596;53.554;9.916;2023-02-17T09:13:44;58.90;;;29.87;;
17796;SDS011;55596;53.554;9.916;2023-02-17T09:16:12;61.07;;;28.40;;
17796;SDS011;55596;53.554;9.916;2023-02-17T09:18:40;71.93;;;31.27;;
17796;SDS011;55596;53.554;9.916;2023-02-17T09:21:08;62.13;;;28.50;;
17796;SDS011;55596;53.554;9.916;2023-02-17T09:23:37;65.80;;;29.23;;
17796;SDS011;55596;53.554;9.916;2023-02-17T09:26:04;64.10;;;28.80;;
17796;SDS011;55596;53.554;9.916;2023-02-17T09:28:34;59.97;;;26.83;;
17796;SDS011;55596;53.554;9.916;2023-02-17T09:31:06;61.13;;;27.87;;
17796;SDS011;55596;53.554;9.916;2023-02-17T09:33:34;57.67;;;27.70;;
17796;SDS011;55596;53.554;9.916;2023-02-17T09:36:02;58.90;;;28.40;;
17796;SDS011;55596;53.554;9.916;2023-02-17T09:38:30;56.13;;;26.23;;
17796;SDS011;55596;53.554;9.916;2023-02-17T09:40:57;55.63;;;26.67;;
17796;SDS011;55596;53.554;9.916;2023-02-17T09:43:27;55.43;;;25.33;;
17796;SDS011;55596;53.554;9.916;2023-02-17T09:45:57;58.63;;;26.07;;
17796;SDS011;55596;53.554;9.916;2023-02-17T09:48:27;58.90;;;26.60;;
17796;SDS011;55596;53.554;9.916;2023-02-17T09:50:57;53.30;;;25.70;;
17796;SDS011;55596;53.554;9.916;2023-02-17T09:53:29;56.20;;;25.30;;
17796;SDS011;55596;53.554;9.916;2023-02-17T09:56:03;54.77;;;24.23;;
17796;SDS011;55596;53.554;9.916;2023-02-17T09:58:35;56.53;;;23.67;;
17796;SDS011;55596;53.554;9.916;2023-02-17T10:01:07;50.90;;;23.37;;
17796;SDS011;55596;53.554;9.916;2023-02-17T10:03:38;48.80;;;23.73;;
17796;SDS011;55596;53.554;9.916;2023-02-17T10:06:11;53.23;;;22.23;;
17796;SDS011;55596;53.554;9.916;2023-02-17T10:08:44;53.90;;;24.00;;
17796;SDS011;55596;53.554;9.916;2023-02-17T10:11:16;49.20;;;23.73;;
17796;SDS011;55596;53.554;9.916;2023-02-17T10:13:48;50.20;;;24.03;;
17796;SDS011;55596;53.554;9.916;2023-02-17T10:16:19;53.60;;;24.13;;
17796;SDS011;55596;53.554;9.916;2023-02-17T10:18:49;53.43;;;24.87;;
17796;SDS011;55596;53.554;9.916;2023-02-17T10:21:27;56.40;;;26.17;;
17796;SDS011;55596;53.554;9.916;2023-02-17T10:23:59;61.60;;;27.00;;
17796;SDS011;55596;53.554;9.916;2023-02-17T10:26:30;63.60;;;26.80;;
17796;SDS011;55596;53.554;9.916;2023-02-17T10:29:19;63.90;;;28.60;;
17796;SDS011;55596;53.554;9.916;2023-02-17T10:31:58;73.33;;;30.33;;
17796;SDS011;55596;53.554;9.916;2023-02-17T10:34:34;64.30;;;28.47;;
17796;SDS011;55596;53.554;9.916;2023-02-17T10:37:03;67.93;;;30.60;;
17796;SDS011;55596;53.554;9.916;2023-02-17T10:39:43;70.20;;;31.23;;
17796;SDS011;55596;53.554;9.916;2023-02-17T10:42:15;64.77;;;28.83;;
17796;SDS011;55596;53.554;9.916;2023-02-17T10:44:47;76.77;;;31.57;;
17796;SDS011;55596;53.554;9.916;2023-02-17T10:47:16;79.17;;;33.30;;
17796;SDS011;55596;53.554;9.916;2023-02-17T10:49:44;76.30;;;32.70;;
17796;SDS011;55596;53.554;9.916;2023-02-17T10:52:16;80.90;;;32.83;;
17796;SDS011;55596;53.554;9.916;2023-02-17T10:54:47;73.33;;;31.63;;
17796;SDS011;55596;53.554;9.916;2023-02-17T10:57:19;80.63;;;32.83;;
17796;SDS011;55596;53.554;9.916;2023-02-17T10:59:48;75.60;;;31.47;;
17796;SDS011;55596;53.554;9.916;2023-02-17T11:02:18;68.97;;;28.33;;
17796;SDS011;55596;53.554;9.916;2023-02-17T11:04:49;76.10;;;32.20;;
17796;SDS011;55596;53.554;9.916;2023-02-17T11:07:21;72.77;;;32.03;;
17796;SDS011;55596;53.554;9.916;2023-02-17T11:09:59;68.60;;;29.73;;
17796;SDS011;55596;53.554;9.916;2023-02-17T11:12:28;61.83;;;25.67;;
17796;SDS011;55596;53.554;9.916;2023-02-17T11:14:59;58.33;;;25.37;;
17796;SDS011;55596;53.554;9.916;2023-02-17T11:17:30;66.37;;;28.27;;
17796;SDS011;55596;53.554;9.916;2023-02-17T11:20:03;58.40;;;26.00;;
17796;SDS011;55596;53.554;9.916;2023-02-17T11:22:32;58.77;;;27.13;;
17796;SDS011;55596;53.554;9.916;2023-02-17T11:25:04;62.70;;;26.70;;
17796;SDS011;55596;53.554;9.916;2023-02-17T11:27:49;62.40;;;27.07;;
17796;SDS011;55596;53.554;9.916;2023-02-17T11:30:18;57.27;;;24.80;;
17796;SDS011;55596;53.554;9.916;2023-02-17T11:32:45;63.10;;;26.03;;
17796;SDS011;55596;53.554;9.916;2023-02-17T11:35:19;57.20;;;25.30;;
17796;SDS011;55596;53.554;9.916;2023-02-17T11:37:51;60.77;;;25.43;;
17796;SDS011;55596;53.554;9.916;2023-02-17T11:40:28;56.73;;;26.10;;
17796;SDS011;55596;53.554;9.916;2023-02-17T11:42:57;55.17;;;23.87;;
17796;SDS011;55596;53.554;9.916;2023-02-17T11:45:27;54.83;;;24.83;;
17796;SDS011;55596;53.554;9.916;2023-02-17T11:48:04;66.63;;;26.90;;
17796;SDS011;55596;53.554;9.916;2023-02-17T11:50:40;56.83;;;25.40;;
17796;SDS011;55596;53.554;9.916;2023-02-17T11:53:22;62.13;;;26.10;;
17796;SDS011;55596;53.554;9.916;2023-02-17T11:56:04;57.80;;;25.37;;
17796;SDS011;55596;53.554;9.916;2023-02-17T12:01:57;65.10;;;27.53;;
17796;SDS011;55596;53.554;9.916;2023-02-17T12:04:37;62.00;;;27.23;;
17796;SDS011;55596;53.554;9.916;2023-02-17T12:07:18;65.60;;;26.90;;
17796;SDS011;55596;53.554;9.916;2023-02-17T12:09:56;61.63;;;27.83;;
17796;SDS011;55596;53.554;9.916;2023-02-17T12:12:34;63.67;;;27.73;;
17796;SDS011;55596;53.554;9.916;2023-02-17T12:15:18;67.10;;;28.60;;
17796;SDS011;55596;53.554;9.916;2023-02-17T12:17:54;62.50;;;28.60;;
17796;SDS011;55596;53.554;9.916;2023-02-17T12:20:32;65.00;;;26.40;;
17796;SDS011;55596;53.554;9.916;2023-02-17T12:23:27;61.47;;;25.60;;
17796;SDS011;55596;53.554;9.916;2023-02-17T12:26:09;56.37;;;24.20;;
17796;SDS011;55596;53.554;9.916;2023-02-17T12:28:50;56.40;;;24.90;;
17796;SDS011;55596;53.554;9.916;2023-02-17T12:31:30;64.37;;;25.37;;
17796;SDS011;55596;53.554;9.916;2023-02-17T12:34:13;52.13;;;22.97;;
17796;SDS011;55596;53.554;9.916;2023-02-17T12:36:45;55.43;;;23.90;;
17796;SDS011;55596;53.554;9.916;2023-02-17T12:39:14;49.07;;;21.87;;
17796;SDS011;55596;53.554;9.916;2023-02-17T12:41:46;54.80;;;24.30;;
17796;SDS011;55596;53.554;9.916;2023-02-17T12:44:17;50.43;;;22.63;;
17796;SDS011;55596;53.554;9.916;2023-02-17T12:46:47;49.80;;;22.07;;
17796;SDS011;55596;53.554;9.916;2023-02-17T12:49:18;43.30;;;20.93;;
17796;SDS011;55596;53.554;9.916;2023-02-17T12:51:50;42.40;;;20.90;;
17796;SDS011;55596;53.554;9.916;2023-02-17T12:54:19;47.63;;;21.40;;
17796;SDS011;55596;53.554;9.916;2023-02-17T12:56:54;40.60;;;19.83;;
17796;SDS011;55596;53.554;9.916;2023-02-17T12:59:42;41.57;;;20.27;;
17796;SDS011;55596;53.554;9.916;2023-02-17T13:02:11;41.40;;;17.63;;
17796;SDS011;55596;53.554;9.916;2023-02-17T13:04:39;38.10;;;18.43;;
17796;SDS011;55596;53.554;9.916;2023-02-17T13:07:17;36.20;;;16.90;;
17796;SDS011;55596;53.554;9.916;2023-02-17T13:09:50;31.37;;;16.23;;
17796;SDS011;55596;53.554;9.916;2023-02-17T13:12:32;30.30;;;15.17;;
17796;SDS011;55596;53.554;9.916;2023-02-17T13:15:10;36.10;;;17.83;;
17796;SDS011;55596;53.554;9.916;2023-02-17T13:17:52;32.70;;;15.83;;
17796;SDS011;55596;53.554;9.916;2023-02-17T13:20:25;29.43;;;14.37;;
17796;SDS011;55596;53.554;9.916;2023-02-17T13:23:04;30.23;;;14.33;;
17796;SDS011;55596;53.554;9.916;2023-02-17T13:25:33;28.93;;;13.33;;
17796;SDS011;55596;53.554;9.916;2023-02-17T13:28:01;20.97;;;13.30;;
17796;SDS011;55596;53.554;9.916;2023-02-17T13:30:42;28.40;;;13.23;;
17796;SDS011;55596;53.554;9.916;2023-02-17T13:33:24;26.47;;;13.27;;
17796;SDS011;55596;53.554;9.916;2023-02-17T13:35:56;30.17;;;14.47;;
17796;SDS011;55596;53.554;9.916;2023-02-17T13:38:26;25.10;;;12.33;;
17796;SDS011;55596;53.554;9.916;2023-02-17T13:40:56;29.03;;;13.87;;
17796;SDS011;55596;53.554;9.916;2023-02-17T13:43:26;28.47;;;14.53;;
17796;SDS011;55596;53.554;9.916;2023-02-17T13:45:57;21.37;;;13.47;;
17796;SDS011;55596;53.554;9.916;2023-02-17T13:48:26;23.93;;;13.13;;
17796;SDS011;55596;53.554;9.916;2023-02-17T13:50:55;24.90;;;13.53;;
17796;SDS011;55596;53.554;9.916;2023-02-17T13:53:24;28.93;;;12.90;;
17796;SDS011;55596;53.554;9.916;2023-02-17T13:55:54;29.47;;;12.53;;
17796;SDS011;55596;53.554;9.916;2023-02-17T13:58:26;25.37;;;12.23;;
17796;SDS011;55596;53.554;9.916;2023-02-17T14:00:54;23.60;;;12.07;;
17796;SDS011;55596;53.554;9.916;2023-02-17T14:03:24;29.63;;;11.30;;
17796;SDS011;55596;53.554;9.916;2023-02-17T14:05:53;19.50;;;11.23;;
17796;SDS011;55596;53.554;9.916;2023-02-17T14:08:28;21.63;;;10.90;;
17796;SDS011;55596;53.554;9.916;2023-02-17T14:11:02;22.27;;;10.77;;
17796;SDS011;55596;53.554;9.916;2023-02-17T14:13:33;18.70;;;9.00;;
17796;SDS011;55596;53.554;9.916;2023-02-17T14:16:02;19.47;;;8.77;;
17796;SDS011;55596;53.554;9.916;2023-02-17T14:18:32;25.40;;;8.87;;
17796;SDS011;55596;53.554;9.916;2023-02-17T14:21:03;17.67;;;8.53;;
17796;SDS011;55596;53.554;9.916;2023-02-17T14:23:41;18.57;;;7.10;;
17796;SDS011;55596;53.554;9.916;2023-02-17T14:26:10;18.30;;;6.83;;
17796;SDS011;55596;53.554;9.916;2023-02-17T14:28:40;13.37;;;6.53;;
17796;SDS011;55596;53.554;9.916;2023-02-17T14:31:19;14.90;;;6.33;;
17796;SDS011;55596;53.554;9.916;2023-02-17T14:33:51;15.37;;;5.97;;
17796;SDS011;55596;53.554;9.916;2023-02-17T14:36:26;15.00;;;6.03;;
17796;SDS011;55596;53.554;9.916;2023-02-17T14:38:55;17.37;;;6.37;;
17796;SDS011;55596;53.554;9.916;2023-02-17T14:41:23;16.77;;;4.90;;
17796;SDS011;55596;53.554;9.916;2023-02-17T14:43:50;14.07;;;4.60;;